KELZ

Wellsville Municipal Arpt,tarantine Field Airport

Wellsville, New York, USA
METAR KELZ 221956Z AUTO VRB05KT 10SM BKN050 BKN060 10/M01 A3004 RMK AO2 SLP187 T01001011
Observed Flight Rules
Oct-22 @ 19:56 UTC (51 minutes ago) Visual Flight Rules
Wind Visibility Clouds
Variable at 5 knots 10 miles
  • Broken at 5,000' AGL
  • Broken at 6,000' AGL
Temperatures Readings
Current 10°C / 50°F
Dewpoint -1°C / 30°F
Humidity 47%
Altimeter 30.04" Hg
Pressure 1018.7 hPa
Elevation 646
METAR KELZ 221956Z AUTO VRB05KT 10SM BKN050 BKN060 10/M01 A3004 RMK AO2 SLP187 T01001011
Observed Flight Rules
Oct-22 @ 19:56 UTC
(51 minutes ago)
VFR
Wind Visibility
Variable at 5 knots 10 miles
Clouds
  • Broken at 5,000' AGL
  • Broken at 6,000' AGL
Temperature Dewpoint
10°C / 50°F -1°C / 30°F
Humidity Altimeter Pressure
47% 30.04" Hg 1018.7 hPa